Search for airport 
image banner adimage banner adimage banner ad
image banner ad

N30 - Cherry Ridge

Located in Honesdale, United States

ICAO - N30, IATA -

Data provided by Airmate  

General information

Coordinates: N41°30'56" W75°15'6"
Elevation is 1357 feet MSL.
Magnetic variation is -13° East
View others Airports in Pennsylvania

Operational data

Special qualification required
Current time UTC:
Current local time:
Weather at : KMSV - Sullivan County Intl ( 43 km )
METAR: KMSV 061214Z AUTO 32015G27KT 10SM SCT029 08/01 A2997 RMK AO2 PK WND 34027/1211
View NOTAMs / SUP AIP / TFR affecting this airport [VIEW]
Communications frequencies: [VIEW]

Runways:

RWY identifierQFULength (ft)Width (ft)SurfaceLDA (ft)
18167°298650ASPH
36347°298650ASPH

Airport contact information

Address: Honesdale United States

Other aviation service providers

Flight schools

Tml Aircraft, Inc

Tml Aircraft, Inc

Satellite view of N30